Time,TemperatureF,DewpointF,PressureIn,WindDirection,WindDirectionDegrees,WindSpeedMPH,WindSpeedGustMPH,Humidity,HourlyPrecipIn,Conditions,Clouds,dailyrainin,SoftwareType,DateUTC
2013-05-02 00:00:00,62.0,51.7,30.22,ENE,69,0.0,5.0,69,0.00,,---,0.00,VWS V14.01,2013-05-02 04:00:00,
2013-05-02 00:15:00,62.2,51.1,30.22,ESE,117,2.0,5.0,67,0.00,,---,0.00,VWS V14.01,2013-05-02 04:15:00,
2013-05-02 00:30:00,61.9,50.8,30.22,SE,142,0.0,2.0,67,0.00,,---,0.00,VWS V14.01,2013-05-02 04:30:00,
2013-05-02 00:45:00,61.0,49.6,30.23,East,99,0.0,3.0,66,0.00,,---,0.00,VWS V14.01,2013-05-02 04:45:00,
2013-05-02 01:00:00,60.3,48.9,30.23,ESE,114,0.0,4.0,66,0.00,,---,0.00,VWS V14.01,2013-05-02 05:00:00,
2013-05-02 01:15:00,59.7,47.9,30.23,East,96,0.0,4.0,65,0.00,,---,0.00,VWS V14.01,2013-05-02 05:15:00,
2013-05-02 01:30:00,60.2,46.7,30.23,East,96,0.0,5.0,61,0.00,,---,0.00,VWS V14.01,2013-05-02 05:30:00,
2013-05-02 01:45:00,60.3,45.5,30.23,ENE,65,0.0,5.0,58,0.00,,---,0.00,VWS V14.01,2013-05-02 05:45:00,
2013-05-02 02:00:00,59.1,45.2,30.23,SSE,164,0.0,3.0,60,0.00,,---,0.00,VWS V14.01,2013-05-02 06:00:00,
2013-05-02 02:15:00,59.0,43.8,30.23,ESE,114,0.0,4.0,57,0.00,,---,0.00,VWS V14.01,2013-05-02 06:15:00,
2013-05-02 02:30:00,59.0,43.8,30.23,East,101,0.0,4.0,57,0.00,,---,0.00,VWS V14.01,2013-05-02 06:30:00,
2013-05-02 02:45:00,58.4,45.5,30.23,ENE,70,0.0,5.0,62,0.00,,---,0.00,VWS V14.01,2013-05-02 06:45:00,
2013-05-02 03:00:00,57.5,44.6,30.22,SSE,160,0.0,5.0,62,0.00,,---,0.00,VWS V14.01,2013-05-02 07:00:00,
2013-05-02 03:15:00,57.0,43.7,30.22,East,98,0.0,4.0,61,0.00,,---,0.00,VWS V14.01,2013-05-02 07:15:00,
2013-05-02 03:30:00,56.4,43.1,30.22,ESE,119,0.0,3.0,61,0.00,,---,0.00,VWS V14.01,2013-05-02 07:30:00,
2013-05-02 03:45:00,55.9,43.9,30.22,ENE,65,0.0,2.0,64,0.00,,---,0.00,VWS V14.01,2013-05-02 07:45:00,
2013-05-02 04:00:00,55.5,44.3,30.23,ESE,106,0.0,3.0,66,0.00,,---,0.00,VWS V14.01,2013-05-02 08:00:00,
2013-05-02 04:15:00,55.1,43.2,30.22,ESE,107,0.0,1.0,64,0.00,,---,0.00,VWS V14.01,2013-05-02 08:15:00,
2013-05-02 04:30:00,55.0,43.1,30.23,ESE,111,0.0,5.0,64,0.00,,---,0.00,VWS V14.01,2013-05-02 08:30:00,
2013-05-02 04:45:00,55.3,42.5,30.23,ESE,115,0.0,5.0,62,0.00,,---,0.00,VWS V14.01,2013-05-02 08:45:00,
2013-05-02 05:00:00,54.6,42.7,30.23,SE,128,3.0,4.0,64,0.00,,---,0.00,VWS V14.01,2013-05-02 09:00:00,
2013-05-02 05:15:00,54.0,43.3,30.23,NNE,14,0.0,3.0,67,0.00,,---,0.00,VWS V14.01,2013-05-02 09:15:00,
2013-05-02 05:30:00,53.7,43.0,30.23,East,83,0.0,3.0,67,0.00,,---,0.00,VWS V14.01,2013-05-02 09:30:00,
2013-05-02 05:45:00,53.0,42.3,30.24,NNW,344,3.0,3.0,67,0.00,,---,0.00,VWS V14.01,2013-05-02 09:45:00,
2013-05-02 06:00:00,53.0,42.3,30.24,ESE,105,0.0,4.0,67,0.00,,---,0.00,VWS V14.01,2013-05-02 10:00:00,
2013-05-02 06:15:00,53.3,41.8,30.25,ESE,115,0.0,5.0,65,0.00,,---,0.00,VWS V14.01,2013-05-02 10:15:00,
2013-05-02 06:30:00,53.3,43.4,30.25,East,94,0.0,4.0,69,0.00,,---,0.00,VWS V14.01,2013-05-02 10:30:00,
2013-05-02 06:45:00,52.9,42.6,30.25,ESE,121,0.0,4.0,68,0.00,,---,0.00,VWS V14.01,2013-05-02 10:45:00,
2013-05-02 07:00:00,52.9,42.3,30.25,ESE,118,0.0,5.0,67,0.00,,---,0.00,VWS V14.01,2013-05-02 11:00:00,
2013-05-02 07:15:00,53.2,43.3,30.25,East,84,0.0,5.0,69,0.00,,---,0.00,VWS V14.01,2013-05-02 11:15:00,
2013-05-02 07:30:00,54.2,42.3,30.26,ESE,113,1.0,6.0,64,0.00,,---,0.00,VWS V14.01,2013-05-02 11:30:00,
2013-05-02 07:45:00,56.2,43.8,30.27,East,88,4.0,7.0,63,0.00,,---,0.00,VWS V14.01,2013-05-02 11:45:00,
2013-05-02 08:00:00,57.7,43.5,30.27,West,267,0.0,9.0,59,0.00,,---,0.00,VWS V14.01,2013-05-02 12:00:00,
2013-05-02 08:15:00,58.6,43.9,30.28,West,271,0.0,4.0,58,0.00,,---,0.00,VWS V14.01,2013-05-02 12:15:00,
2013-05-02 08:30:00,59.5,45.2,30.28,SSE,152,0.0,4.0,59,0.00,,---,0.00,VWS V14.01,2013-05-02 12:30:00,
2013-05-02 08:45:00,60.8,46.0,30.28,ESE,102,0.0,5.0,58,0.00,,---,0.00,VWS V14.01,2013-05-02 12:45:00,
2013-05-02 09:00:00,62.5,47.1,30.28,East,80,0.0,5.0,57,0.00,,---,0.00,VWS V14.01,2013-05-02 13:00:00,
2013-05-02 09:15:00,64.8,47.3,30.28,East,95,0.0,3.0,53,0.00,,---,0.00,VWS V14.01,2013-05-02 13:15:00,
2013-05-02 09:30:00,65.7,49.1,30.28,SW,222,0.0,7.0,55,0.00,,---,0.00,VWS V14.01,2013-05-02 13:30:00,
2013-05-02 09:45:00,67.2,48.0,30.27,SSW,205,0.0,4.0,50,0.00,,---,0.00,VWS V14.01,2013-05-02 13:45:00,
2013-05-02 10:00:00,67.6,48.3,30.27,East,81,0.0,6.0,50,0.00,,---,0.00,VWS V14.01,2013-05-02 14:00:00,
2013-05-02 10:15:00,68.5,48.6,30.27,SSE,156,0.0,5.0,49,0.00,,---,0.00,VWS V14.01,2013-05-02 14:15:00,
2013-05-02 10:30:00,68.9,49.0,30.27,SE,124,0.0,6.0,49,0.00,,---,0.00,VWS V14.01,2013-05-02 14:30:00,
2013-05-02 10:45:00,68.8,50.5,30.26,SE,136,0.0,7.0,52,0.00,,---,0.00,VWS V14.01,2013-05-02 14:45:00,
2013-05-02 11:00:00,70.0,51.6,30.26,East,84,0.0,5.0,52,0.00,,---,0.00,VWS V14.01,2013-05-02 15:00:00,
2013-05-02 11:15:00,70.4,50.9,30.26,ESE,108,4.0,6.0,50,0.00,,---,0.00,VWS V14.01,2013-05-02 15:15:00,
2013-05-02 11:30:00,70.8,51.8,30.26,East,80,0.0,5.0,51,0.00,,---,0.00,VWS V14.01,2013-05-02 15:30:00,
2013-05-02 11:45:00,71.9,52.3,30.26,SSE,150,1.0,5.0,50,0.00,,---,0.00,VWS V14.01,2013-05-02 15:45:00,
2013-05-02 12:00:00,73.0,53.8,30.25,NE,52,1.0,5.0,51,0.00,,---,0.00,VWS V14.01,2013-05-02 16:00:00,
2013-05-02 12:15:00,73.1,53.9,30.25,East,88,0.0,5.0,51,0.00,,---,0.00,VWS V14.01,2013-05-02 16:15:00,
2013-05-02 12:30:00,72.9,52.1,30.24,East,84,3.0,5.0,48,0.00,,---,0.00,VWS V14.01,2013-05-02 16:30:00,
2013-05-02 12:45:00,72.7,52.5,30.24,WNW,283,0.0,11.0,49,0.00,,---,0.00,VWS V14.01,2013-05-02 16:45:00,
2013-05-02 13:00:00,73.0,52.7,30.23,SSE,148,1.0,6.0,49,0.00,,---,0.00,VWS V14.01,2013-05-02 17:00:00,
2013-05-02 13:15:00,74.3,55.0,30.23,ENE,67,1.0,6.0,51,0.00,,---,0.00,VWS V14.01,2013-05-02 17:15:00,
2013-05-02 13:30:00,74.9,53.9,30.22,SE,141,0.0,6.0,48,0.00,,---,0.00,VWS V14.01,2013-05-02 17:30:00,
2013-05-02 13:45:00,74.5,53.5,30.21,East,96,0.0,7.0,48,0.00,,---,0.00,VWS V14.01,2013-05-02 17:45:00,
2013-05-02 14:00:00,75.1,54.1,30.21,ESE,117,3.0,4.0,48,0.00,,---,0.00,VWS V14.01,2013-05-02 18:00:00,
2013-05-02 14:15:00,74.7,53.7,30.20,East,88,7.0,7.0,48,0.00,,---,0.00,VWS V14.01,2013-05-02 18:15:00,
2013-05-02 14:30:00,75.1,53.5,30.19,ENE,74,3.0,9.0,47,0.00,,---,0.00,VWS V14.01,2013-05-02 18:30:00,
2013-05-02 14:45:00,75.6,54.0,30.19,SSE,154,2.0,7.0,47,0.00,,---,0.00,VWS V14.01,2013-05-02 18:45:00,
2013-05-02 15:00:00,76.0,53.8,30.19,SSE,161,1.0,6.0,46,0.00,,---,0.00,VWS V14.01,2013-05-02 19:00:00,
2013-05-02 15:15:00,76.9,53.3,30.19,ESE,117,1.0,5.0,44,0.00,,---,0.00,VWS V14.01,2013-05-02 19:15:00,
2013-05-02 15:30:00,75.8,53.0,30.18,ENE,57,2.0,9.0,45,0.00,,---,0.00,VWS V14.01,2013-05-02 19:30:00,
2013-05-02 15:45:00,76.6,51.8,30.17,ENE,67,3.0,9.0,42,0.00,,---,0.00,VWS V14.01,2013-05-02 19:45:00,
2013-05-02 16:00:00,77.3,53.7,30.17,East,101,3.0,6.0,44,0.00,,---,0.00,VWS V14.01,2013-05-02 20:00:00,
2013-05-02 16:15:00,76.9,51.4,30.16,ESE,105,0.0,7.0,41,0.00,,---,0.00,VWS V14.01,2013-05-02 20:15:00,
2013-05-02 16:30:00,77.0,52.2,30.16,East,93,0.0,7.0,42,0.00,,---,0.00,VWS V14.01,2013-05-02 20:30:00,
2013-05-02 16:45:00,76.4,51.6,30.16,ESE,109,1.0,6.0,42,0.00,,---,0.00,VWS V14.01,2013-05-02 20:45:00,
2013-05-02 17:00:00,75.7,51.6,30.16,ESE,117,4.0,6.0,43,0.00,,---,0.00,VWS V14.01,2013-05-02 21:00:00,
2013-05-02 17:15:00,75.5,50.2,30.15,ENE,74,0.0,6.0,41,0.00,,---,0.00,VWS V14.01,2013-05-02 21:15:00,
2013-05-02 17:30:00,75.6,50.3,30.15,ESE,123,0.0,7.0,41,0.00,,---,0.00,VWS V14.01,2013-05-02 21:30:00,
2013-05-02 17:45:00,75.4,50.1,30.14,East,79,0.0,8.0,41,0.00,,---,0.00,VWS V14.01,2013-05-02 21:45:00,
2013-05-02 18:00:00,74.6,48.7,30.14,ESE,113,0.0,9.0,40,0.00,,---,0.00,VWS V14.01,2013-05-02 22:00:00,
2013-05-02 18:15:00,74.3,49.8,30.14,ESE,108,0.0,7.0,42,0.00,,---,0.00,VWS V14.01,2013-05-02 22:15:00,
2013-05-02 18:30:00,74.4,48.5,30.14,East,91,1.0,6.0,40,0.00,,---,0.00,VWS V14.01,2013-05-02 22:30:00,
2013-05-02 18:45:00,74.0,49.5,30.14,ESE,117,0.0,4.0,42,0.00,,---,0.00,VWS V14.01,2013-05-02 22:45:00,
2013-05-02 19:00:00,73.6,49.8,30.13,East,82,0.0,3.0,43,0.00,,---,0.00,VWS V14.01,2013-05-02 23:00:00,
2013-05-02 19:15:00,72.6,48.8,30.13,ESE,106,0.0,4.0,43,0.00,,---,0.00,VWS V14.01,2013-05-02 23:15:00,
2013-05-02 19:30:00,71.5,46.6,30.13,SE,135,0.0,5.0,41,0.00,,---,0.00,VWS V14.01,2013-05-02 23:30:00,
2013-05-02 19:45:00,70.7,46.5,30.13,SE,138,0.0,5.0,42,0.00,,---,0.00,VWS V14.01,2013-05-02 23:45:00,
2013-05-02 20:00:00,69.8,46.3,30.13,SE,125,0.0,2.0,43,0.00,,---,0.00,VWS V14.01,2013-05-03 00:00:00,
2013-05-02 20:15:00,69.0,46.2,30.13,SE,128,0.0,2.0,44,0.00,,---,0.00,VWS V14.01,2013-05-03 00:15:00,
2013-05-02 20:30:00,67.4,46.5,30.13,SE,128,0.0,0.0,47,0.00,,---,0.00,VWS V14.01,2013-05-03 00:30:00,
2013-05-02 20:45:00,66.1,45.3,30.13,SE,128,0.0,0.0,47,0.00,,---,0.00,VWS V14.01,2013-05-03 00:45:00,
2013-05-02 21:00:00,65.0,45.9,30.13,SE,128,0.0,0.0,50,0.00,,---,0.00,VWS V14.01,2013-05-03 01:00:00,
2013-05-02 21:15:00,64.0,46.0,30.13,SE,128,0.0,0.0,52,0.00,,---,0.00,VWS V14.01,2013-05-03 01:15:00,
2013-05-02 21:30:00,63.0,45.1,30.13,SE,128,0.0,0.0,52,0.00,,---,0.00,VWS V14.01,2013-05-03 01:30:00,
2013-05-02 21:45:00,62.0,44.2,30.14,SE,128,0.0,0.0,52,0.00,,---,0.00,VWS V14.01,2013-05-03 01:45:00,
2013-05-02 22:00:00,61.3,45.5,30.14,SE,128,0.0,0.0,56,0.00,,---,0.00,VWS V14.01,2013-05-03 02:00:00,
2013-05-02 22:15:00,61.3,44.5,30.14,SE,128,0.0,0.0,54,0.00,,---,0.00,VWS V14.01,2013-05-03 02:15:00,
2013-05-02 22:30:00,61.3,44.5,30.14,SE,128,0.0,0.0,54,0.00,,---,0.00,VWS V14.01,2013-05-03 02:30:00,
2013-05-02 22:45:00,62.5,44.2,30.14,ESE,106,0.0,9.0,51,0.00,,---,0.00,VWS V14.01,2013-05-03 02:45:00,
2013-05-02 23:00:00,64.1,43.5,30.14,East,86,0.0,5.0,47,0.00,,---,0.00,VWS V14.01,2013-05-03 03:00:00,
2013-05-02 23:15:00,64.3,43.1,30.14,SSE,155,0.0,5.0,46,0.00,,---,0.00,VWS V14.01,2013-05-03 03:15:00,
2013-05-02 23:30:00,64.1,44.0,30.14,East,92,0.0,5.0,48,0.00,,---,0.00,VWS V14.01,2013-05-03 03:30:00,
2013-05-02 23:45:00,64.4,43.2,30.14,NE,52,1.0,9.0,46,0.00,,---,0.00,VWS V14.01,2013-05-03 03:45:00,